sensor_id;sensor_type;location;lat;lon;timestamp;P1;durP1;ratioP1;P2;durP2;ratioP2
73850;SDS011;62190;51.548;5.688;2022-08-21T00:00:23;64.60;;;27.48;;
73850;SDS011;62190;51.548;5.688;2022-08-21T00:03:00;51.75;;;23.67;;
73850;SDS011;62190;51.548;5.688;2022-08-21T00:05:25;71.47;;;32.10;;
73850;SDS011;62190;51.548;5.688;2022-08-21T00:07:54;83.87;;;35.23;;
73850;SDS011;62190;51.548;5.688;2022-08-21T00:10:22;79.53;;;33.75;;
73850;SDS011;62190;51.548;5.688;2022-08-21T00:12:50;68.62;;;32.38;;
73850;SDS011;62190;51.548;5.688;2022-08-21T00:15:20;65.80;;;31.27;;
73850;SDS011;62190;51.548;5.688;2022-08-21T00:17:48;68.70;;;30.32;;
73850;SDS011;62190;51.548;5.688;2022-08-21T00:20:16;75.92;;;31.85;;
73850;SDS011;62190;51.548;5.688;2022-08-21T00:22:43;67.58;;;31.23;;
73850;SDS011;62190;51.548;5.688;2022-08-21T00:25:12;72.15;;;31.17;;
73850;SDS011;62190;51.548;5.688;2022-08-21T00:27:41;66.20;;;28.55;;
73850;SDS011;62190;51.548;5.688;2022-08-21T00:30:10;68.85;;;30.40;;
73850;SDS011;62190;51.548;5.688;2022-08-21T00:32:38;60.48;;;30.40;;
73850;SDS011;62190;51.548;5.688;2022-08-21T00:35:07;62.50;;;31.55;;
73850;SDS011;62190;51.548;5.688;2022-08-21T00:37:37;58.65;;;29.42;;
73850;SDS011;62190;51.548;5.688;2022-08-21T00:40:05;56.75;;;24.27;;
73850;SDS011;62190;51.548;5.688;2022-08-21T00:42:34;48.33;;;23.80;;
73850;SDS011;62190;51.548;5.688;2022-08-21T00:45:03;57.30;;;24.00;;
73850;SDS011;62190;51.548;5.688;2022-08-21T00:47:31;48.30;;;23.85;;
73850;SDS011;62190;51.548;5.688;2022-08-21T00:49:58;67.50;;;30.05;;
73850;SDS011;62190;51.548;5.688;2022-08-21T00:52:27;86.00;;;37.30;;
73850;SDS011;62190;51.548;5.688;2022-08-21T00:54:56;58.80;;;30.00;;
73850;SDS011;62190;51.548;5.688;2022-08-21T00:57:26;57.43;;;29.37;;
73850;SDS011;62190;51.548;5.688;2022-08-21T00:59:57;68.92;;;34.70;;
73850;SDS011;62190;51.548;5.688;2022-08-21T01:02:27;87.10;;;37.45;;
73850;SDS011;62190;51.548;5.688;2022-08-21T01:04:54;75.08;;;32.85;;
73850;SDS011;62190;51.548;5.688;2022-08-21T01:07:21;60.20;;;29.77;;
73850;SDS011;62190;51.548;5.688;2022-08-21T01:09:49;57.43;;;29.18;;
73850;SDS011;62190;51.548;5.688;2022-08-21T01:12:18;76.87;;;37.23;;
73850;SDS011;62190;51.548;5.688;2022-08-21T01:14:45;72.42;;;34.65;;
73850;SDS011;62190;51.548;5.688;2022-08-21T01:17:14;61.92;;;30.90;;
73850;SDS011;62190;51.548;5.688;2022-08-21T01:19:41;55.03;;;30.08;;
73850;SDS011;62190;51.548;5.688;2022-08-21T01:22:09;61.95;;;29.87;;
73850;SDS011;62190;51.548;5.688;2022-08-21T01:24:37;91.37;;;41.50;;
73850;SDS011;62190;51.548;5.688;2022-08-21T01:27:04;95.77;;;42.25;;
73850;SDS011;62190;51.548;5.688;2022-08-21T01:32:17;43.13;;;21.60;;
73850;SDS011;62190;51.548;5.688;2022-08-21T01:34:46;40.65;;;22.45;;
73850;SDS011;62190;51.548;5.688;2022-08-21T01:37:14;60.35;;;29.90;;
73850;SDS011;62190;51.548;5.688;2022-08-21T01:39:42;49.50;;;27.37;;
73850;SDS011;62190;51.548;5.688;2022-08-21T01:42:10;36.63;;;23.62;;
73850;SDS011;62190;51.548;5.688;2022-08-21T01:44:37;53.05;;;25.27;;
73850;SDS011;62190;51.548;5.688;2022-08-21T01:47:05;46.30;;;23.02;;
73850;SDS011;62190;51.548;5.688;2022-08-21T01:49:34;55.85;;;27.42;;
73850;SDS011;62190;51.548;5.688;2022-08-21T01:52:02;52.70;;;28.12;;
73850;SDS011;62190;51.548;5.688;2022-08-21T01:54:30;56.28;;;26.97;;
73850;SDS011;62190;51.548;5.688;2022-08-21T01:56:58;49.42;;;24.07;;
73850;SDS011;62190;51.548;5.688;2022-08-21T01:59:27;38.02;;;22.85;;
73850;SDS011;62190;51.548;5.688;2022-08-21T02:01:54;48.10;;;24.45;;
73850;SDS011;62190;51.548;5.688;2022-08-21T02:04:23;48.00;;;23.73;;
73850;SDS011;62190;51.548;5.688;2022-08-21T02:06:51;49.42;;;24.10;;
73850;SDS011;62190;51.548;5.688;2022-08-21T02:09:18;51.33;;;26.33;;
73850;SDS011;62190;51.548;5.688;2022-08-21T02:11:47;50.40;;;26.45;;
73850;SDS011;62190;51.548;5.688;2022-08-21T02:14:15;57.40;;;28.02;;
73850;SDS011;62190;51.548;5.688;2022-08-21T02:16:43;54.42;;;28.02;;
73850;SDS011;62190;51.548;5.688;2022-08-21T02:19:12;49.00;;;26.50;;
73850;SDS011;62190;51.548;5.688;2022-08-21T02:21:42;44.35;;;24.12;;
73850;SDS011;62190;51.548;5.688;2022-08-21T02:24:10;43.00;;;23.65;;
73850;SDS011;62190;51.548;5.688;2022-08-21T02:26:38;34.13;;;19.75;;
73850;SDS011;62190;51.548;5.688;2022-08-21T02:29:05;44.60;;;23.83;;
73850;SDS011;62190;51.548;5.688;2022-08-21T02:31:33;40.73;;;24.05;;
73850;SDS011;62190;51.548;5.688;2022-08-21T02:34:00;35.65;;;20.45;;
73850;SDS011;62190;51.548;5.688;2022-08-21T02:36:29;36.95;;;20.85;;
73850;SDS011;62190;51.548;5.688;2022-08-21T02:38:56;40.60;;;22.58;;
73850;SDS011;62190;51.548;5.688;2022-08-21T02:41:23;48.25;;;25.45;;
73850;SDS011;62190;51.548;5.688;2022-08-21T02:43:50;47.25;;;27.35;;
73850;SDS011;62190;51.548;5.688;2022-08-21T02:46:18;52.53;;;26.85;;
73850;SDS011;62190;51.548;5.688;2022-08-21T02:48:47;67.45;;;36.65;;
73850;SDS011;62190;51.548;5.688;2022-08-21T02:51:16;62.58;;;31.62;;
73850;SDS011;62190;51.548;5.688;2022-08-21T02:53:45;60.15;;;29.95;;
73850;SDS011;62190;51.548;5.688;2022-08-21T02:56:14;51.63;;;27.35;;
73850;SDS011;62190;51.548;5.688;2022-08-21T02:58:44;31.30;;;19.95;;
73850;SDS011;62190;51.548;5.688;2022-08-21T03:01:12;43.23;;;24.45;;
73850;SDS011;62190;51.548;5.688;2022-08-21T03:03:41;32.53;;;19.30;;
73850;SDS011;62190;51.548;5.688;2022-08-21T03:06:10;44.38;;;24.98;;
73850;SDS011;62190;51.548;5.688;2022-08-21T03:08:40;42.65;;;25.57;;
73850;SDS011;62190;51.548;5.688;2022-08-21T03:11:11;41.25;;;24.77;;
73850;SDS011;62190;51.548;5.688;2022-08-21T03:13:39;35.17;;;22.10;;
73850;SDS011;62190;51.548;5.688;2022-08-21T03:16:06;32.17;;;20.05;;
73850;SDS011;62190;51.548;5.688;2022-08-21T03:18:33;28.60;;;19.67;;
73850;SDS011;62190;51.548;5.688;2022-08-21T03:21:01;36.38;;;19.37;;
73850;SDS011;62190;51.548;5.688;2022-08-21T03:23:28;28.57;;;17.85;;
73850;SDS011;62190;51.548;5.688;2022-08-21T03:25:56;31.93;;;18.57;;
73850;SDS011;62190;51.548;5.688;2022-08-21T03:28:23;39.67;;;20.60;;
73850;SDS011;62190;51.548;5.688;2022-08-21T03:30:51;34.38;;;20.17;;
73850;SDS011;62190;51.548;5.688;2022-08-21T03:33:19;37.42;;;21.62;;
73850;SDS011;62190;51.548;5.688;2022-08-21T03:35:48;30.72;;;18.87;;
73850;SDS011;62190;51.548;5.688;2022-08-21T03:38:23;43.50;;;23.55;;
73850;SDS011;62190;51.548;5.688;2022-08-21T03:40:50;54.77;;;30.02;;
73850;SDS011;62190;51.548;5.688;2022-08-21T03:43:18;37.75;;;21.87;;
73850;SDS011;62190;51.548;5.688;2022-08-21T03:45:45;34.27;;;21.37;;
73850;SDS011;62190;51.548;5.688;2022-08-21T03:48:12;31.75;;;20.25;;
73850;SDS011;62190;51.548;5.688;2022-08-21T03:50:41;45.43;;;25.00;;
73850;SDS011;62190;51.548;5.688;2022-08-21T03:53:10;52.73;;;27.62;;
73850;SDS011;62190;51.548;5.688;2022-08-21T03:55:38;47.43;;;28.00;;
73850;SDS011;62190;51.548;5.688;2022-08-21T03:58:07;54.70;;;28.62;;
73850;SDS011;62190;51.548;5.688;2022-08-21T04:00:34;72.92;;;35.25;;
73850;SDS011;62190;51.548;5.688;2022-08-21T04:03:02;63.75;;;32.38;;
73850;SDS011;62190;51.548;5.688;2022-08-21T04:05:30;53.17;;;29.15;;
73850;SDS011;62190;51.548;5.688;2022-08-21T04:07:59;47.85;;;27.20;;
73850;SDS011;62190;51.548;5.688;2022-08-21T04:10:29;42.33;;;25.15;;
73850;SDS011;62190;51.548;5.688;2022-08-21T04:12:57;43.98;;;25.90;;
73850;SDS011;62190;51.548;5.688;2022-08-21T04:15:25;55.08;;;29.72;;
73850;SDS011;62190;51.548;5.688;2022-08-21T04:17:53;33.50;;;22.87;;
73850;SDS011;62190;51.548;5.688;2022-08-21T04:20:21;37.20;;;23.10;;
73850;SDS011;62190;51.548;5.688;2022-08-21T04:22:49;56.00;;;29.60;;
73850;SDS011;62190;51.548;5.688;2022-08-21T04:25:18;67.67;;;33.78;;
73850;SDS011;62190;51.548;5.688;2022-08-21T04:27:46;69.60;;;35.52;;
73850;SDS011;62190;51.548;5.688;2022-08-21T04:30:14;72.90;;;36.80;;
73850;SDS011;62190;51.548;5.688;2022-08-21T04:32:43;75.50;;;39.05;;
73850;SDS011;62190;51.548;5.688;2022-08-21T04:35:13;80.92;;;37.78;;
73850;SDS011;62190;51.548;5.688;2022-08-21T04:37:41;65.97;;;33.58;;
73850;SDS011;62190;51.548;5.688;2022-08-21T04:40:10;62.25;;;33.05;;
73850;SDS011;62190;51.548;5.688;2022-08-21T04:42:48;46.48;;;25.12;;
73850;SDS011;62190;51.548;5.688;2022-08-21T04:45:16;68.15;;;34.60;;
73850;SDS011;62190;51.548;5.688;2022-08-21T04:47:47;48.78;;;27.22;;
73850;SDS011;62190;51.548;5.688;2022-08-21T04:50:15;60.63;;;32.33;;
73850;SDS011;62190;51.548;5.688;2022-08-21T04:52:43;49.15;;;27.93;;
73850;SDS011;62190;51.548;5.688;2022-08-21T04:55:11;54.38;;;29.50;;
73850;SDS011;62190;51.548;5.688;2022-08-21T04:57:38;57.13;;;29.50;;
73850;SDS011;62190;51.548;5.688;2022-08-21T05:00:06;66.30;;;35.33;;
73850;SDS011;62190;51.548;5.688;2022-08-21T05:02:36;61.48;;;32.58;;
73850;SDS011;62190;51.548;5.688;2022-08-21T05:05:06;71.20;;;36.25;;
73850;SDS011;62190;51.548;5.688;2022-08-21T05:07:33;51.50;;;29.92;;
73850;SDS011;62190;51.548;5.688;2022-08-21T05:10:00;50.60;;;27.62;;
73850;SDS011;62190;51.548;5.688;2022-08-21T05:12:28;51.80;;;29.50;;
73850;SDS011;62190;51.548;5.688;2022-08-21T05:14:58;54.25;;;30.72;;
73850;SDS011;62190;51.548;5.688;2022-08-21T05:17:26;61.60;;;32.38;;
73850;SDS011;62190;51.548;5.688;2022-08-21T05:19:53;66.33;;;34.43;;
73850;SDS011;62190;51.548;5.688;2022-08-21T05:22:21;53.83;;;32.67;;
73850;SDS011;62190;51.548;5.688;2022-08-21T05:24:50;31.52;;;22.35;;
73850;SDS011;62190;51.548;5.688;2022-08-21T05:27:18;26.20;;;17.27;;
73850;SDS011;62190;51.548;5.688;2022-08-21T05:29:45;21.60;;;14.30;;
73850;SDS011;62190;51.548;5.688;2022-08-21T05:32:13;19.57;;;13.75;;
73850;SDS011;62190;51.548;5.688;2022-08-21T05:34:40;12.75;;;10.28;;
73850;SDS011;62190;51.548;5.688;2022-08-21T05:37:09;16.35;;;10.28;;
73850;SDS011;62190;51.548;5.688;2022-08-21T05:39:37;11.97;;;8.58;;
73850;SDS011;62190;51.548;5.688;2022-08-21T05:42:05;13.90;;;8.70;;
73850;SDS011;62190;51.548;5.688;2022-08-21T05:44:32;11.78;;;8.05;;
73850;SDS011;62190;51.548;5.688;2022-08-21T05:47:04;12.50;;;7.22;;
73850;SDS011;62190;51.548;5.688;2022-08-21T05:49:35;11.10;;;6.92;;
73850;SDS011;62190;51.548;5.688;2022-08-21T05:52:03;11.45;;;5.85;;
73850;SDS011;62190;51.548;5.688;2022-08-21T05:54:30;8.95;;;6.03;;
73850;SDS011;62190;51.548;5.688;2022-08-21T05:56:58;9.30;;;6.00;;
73850;SDS011;62190;51.548;5.688;2022-08-21T05:59:25;9.78;;;5.87;;
73850;SDS011;62190;51.548;5.688;2022-08-21T06:01:53;11.53;;;6.22;;
73850;SDS011;62190;51.548;5.688;2022-08-21T06:04:20;9.55;;;5.50;;
73850;SDS011;62190;51.548;5.688;2022-08-21T06:06:47;11.55;;;5.78;;
73850;SDS011;62190;51.548;5.688;2022-08-21T06:09:15;9.18;;;5.17;;
73850;SDS011;62190;51.548;5.688;2022-08-21T06:11:42;8.75;;;4.97;;
73850;SDS011;62190;51.548;5.688;2022-08-21T06:14:09;7.97;;;4.35;;
73850;SDS011;62190;51.548;5.688;2022-08-21T06:16:38;8.00;;;4.80;;
73850;SDS011;62190;51.548;5.688;2022-08-21T06:19:05;8.68;;;4.70;;
73850;SDS011;62190;51.548;5.688;2022-08-21T06:21:33;6.95;;;4.05;;
73850;SDS011;62190;51.548;5.688;2022-08-21T06:24:00;9.50;;;4.17;;
73850;SDS011;62190;51.548;5.688;2022-08-21T06:26:27;7.47;;;3.52;;
73850;SDS011;62190;51.548;5.688;2022-08-21T06:28:57;8.78;;;3.55;;
73850;SDS011;62190;51.548;5.688;2022-08-21T06:31:24;11.08;;;3.60;;
73850;SDS011;62190;51.548;5.688;2022-08-21T06:33:53;6.95;;;3.67;;
73850;SDS011;62190;51.548;5.688;2022-08-21T06:36:22;9.38;;;3.83;;
73850;SDS011;62190;51.548;5.688;2022-08-21T06:38:50;11.83;;;4.62;;
73850;SDS011;62190;51.548;5.688;2022-08-21T06:41:18;8.18;;;3.75;;
73850;SDS011;62190;51.548;5.688;2022-08-21T06:43:45;7.20;;;3.60;;
73850;SDS011;62190;51.548;5.688;2022-08-21T06:46:13;6.97;;;3.12;;
73850;SDS011;62190;51.548;5.688;2022-08-21T06:48:40;11.38;;;3.95;;
73850;SDS011;62190;51.548;5.688;2022-08-21T06:51:07;7.28;;;3.27;;
73850;SDS011;62190;51.548;5.688;2022-08-21T06:53:34;8.18;;;3.77;;
73850;SDS011;62190;51.548;5.688;2022-08-21T06:56:02;6.78;;;2.75;;
73850;SDS011;62190;51.548;5.688;2022-08-21T06:58:30;7.03;;;3.15;;
73850;SDS011;62190;51.548;5.688;2022-08-21T07:00:57;5.37;;;2.72;;
73850;SDS011;62190;51.548;5.688;2022-08-21T07:03:32;7.15;;;3.08;;
73850;SDS011;62190;51.548;5.688;2022-08-21T07:05:58;6.50;;;2.95;;
73850;SDS011;62190;51.548;5.688;2022-08-21T07:08:26;8.43;;;3.30;;
73850;SDS011;62190;51.548;5.688;2022-08-21T07:10:54;7.67;;;2.95;;
73850;SDS011;62190;51.548;5.688;2022-08-21T07:13:23;5.58;;;2.33;;
73850;SDS011;62190;51.548;5.688;2022-08-21T07:15:50;6.62;;;2.92;;
73850;SDS011;62190;51.548;5.688;2022-08-21T07:18:18;7.62;;;2.65;;
73850;SDS011;62190;51.548;5.688;2022-08-21T07:20:45;6.62;;;2.60;;
73850;SDS011;62190;51.548;5.688;2022-08-21T07:23:17;5.97;;;2.17;;
73850;SDS011;62190;51.548;5.688;2022-08-21T07:25:43;4.37;;;1.98;;
73850;SDS011;62190;51.548;5.688;2022-08-21T07:28:10;8.43;;;2.72;;
73850;SDS011;62190;51.548;5.688;2022-08-21T07:30:37;8.50;;;2.42;;
73850;SDS011;62190;51.548;5.688;2022-08-21T07:33:05;4.53;;;2.50;;
73850;SDS011;62190;51.548;5.688;2022-08-21T07:35:32;8.35;;;2.80;;
73850;SDS011;62190;51.548;5.688;2022-08-21T07:38:00;6.08;;;2.47;;
73850;SDS011;62190;51.548;5.688;2022-08-21T07:40:27;7.08;;;2.15;;
73850;SDS011;62190;51.548;5.688;2022-08-21T07:42:55;5.37;;;1.90;;
73850;SDS011;62190;51.548;5.688;2022-08-21T07:45:22;6.97;;;2.52;;
73850;SDS011;62190;51.548;5.688;2022-08-21T07:47:52;9.70;;;2.75;;
73850;SDS011;62190;51.548;5.688;2022-08-21T07:50:20;6.08;;;2.83;;
73850;SDS011;62190;51.548;5.688;2022-08-21T07:52:47;10.30;;;3.25;;
73850;SDS011;62190;51.548;5.688;2022-08-21T07:55:15;10.55;;;2.75;;
73850;SDS011;62190;51.548;5.688;2022-08-21T07:57:45;6.78;;;2.58;;
73850;SDS011;62190;51.548;5.688;2022-08-21T08:00:14;10.75;;;2.85;;
73850;SDS011;62190;51.548;5.688;2022-08-21T08:02:46;10.68;;;3.50;;
73850;SDS011;62190;51.548;5.688;2022-08-21T08:07:44;7.85;;;2.20;;
73850;SDS011;62190;51.548;5.688;2022-08-21T08:10:13;9.20;;;3.22;;
73850;SDS011;62190;51.548;5.688;2022-08-21T08:12:44;9.43;;;2.45;;
73850;SDS011;62190;51.548;5.688;2022-08-21T08:15:13;8.88;;;3.20;;
73850;SDS011;62190;51.548;5.688;2022-08-21T08:17:45;5.30;;;2.30;;
73850;SDS011;62190;51.548;5.688;2022-08-21T08:20:13;9.28;;;2.45;;
73850;SDS011;62190;51.548;5.688;2022-08-21T08:22:42;11.05;;;2.60;;
73850;SDS011;62190;51.548;5.688;2022-08-21T08:25:10;8.83;;;2.40;;
73850;SDS011;62190;51.548;5.688;2022-08-21T08:27:40;12.82;;;2.83;;
73850;SDS011;62190;51.548;5.688;2022-08-21T08:30:08;9.50;;;2.40;;
73850;SDS011;62190;51.548;5.688;2022-08-21T08:32:37;6.97;;;2.12;;
73850;SDS011;62190;51.548;5.688;2022-08-21T08:35:05;7.33;;;2.08;;
73850;SDS011;62190;51.548;5.688;2022-08-21T08:37:34;10.82;;;2.90;;
73850;SDS011;62190;51.548;5.688;2022-08-21T08:40:03;11.83;;;2.75;;
73850;SDS011;62190;51.548;5.688;2022-08-21T08:42:34;8.50;;;2.27;;
73850;SDS011;62190;51.548;5.688;2022-08-21T08:45:10;8.68;;;2.12;;
73850;SDS011;62190;51.548;5.688;2022-08-21T08:47:40;6.72;;;2.62;;
73850;SDS011;62190;51.548;5.688;2022-08-21T08:50:14;6.60;;;1.85;;
73850;SDS011;62190;51.548;5.688;2022-08-21T08:52:48;8.28;;;2.30;;
73850;SDS011;62190;51.548;5.688;2022-08-21T08:55:18;8.15;;;2.12;;
73850;SDS011;62190;51.548;5.688;2022-08-21T08:57:57;7.20;;;2.33;;
73850;SDS011;62190;51.548;5.688;2022-08-21T09:00:24;11.53;;;2.02;;
73850;SDS011;62190;51.548;5.688;2022-08-21T09:02:53;9.88;;;2.77;;
73850;SDS011;62190;51.548;5.688;2022-08-21T09:05:28;8.40;;;2.02;;
73850;SDS011;62190;51.548;5.688;2022-08-21T09:10:44;6.95;;;2.17;;
73850;SDS011;62190;51.548;5.688;2022-08-21T09:16:05;13.35;;;3.05;;
73850;SDS011;62190;51.548;5.688;2022-08-21T09:21:43;11.18;;;2.50;;
73850;SDS011;62190;51.548;5.688;2022-08-21T09:27:02;11.85;;;2.52;;
73850;SDS011;62190;51.548;5.688;2022-08-21T09:29:38;6.40;;;1.92;;
73850;SDS011;62190;51.548;5.688;2022-08-21T09:32:27;6.20;;;2.20;;
73850;SDS011;62190;51.548;5.688;2022-08-21T09:35:00;13.35;;;4.12;;
73850;SDS011;62190;51.548;5.688;2022-08-21T09:37:30;5.80;;;1.45;;
73850;SDS011;62190;51.548;5.688;2022-08-21T09:40:01;8.60;;;2.12;;
73850;SDS011;62190;51.548;5.688;2022-08-21T09:42:31;7.58;;;2.47;;
73850;SDS011;62190;51.548;5.688;2022-08-21T09:45:10;7.40;;;2.05;;
73850;SDS011;62190;51.548;5.688;2022-08-21T09:47:38;4.33;;;1.10;;
73850;SDS011;62190;51.548;5.688;2022-08-21T09:50:16;9.48;;;2.20;;
73850;SDS011;62190;51.548;5.688;2022-08-21T09:52:47;5.58;;;1.60;;
73850;SDS011;62190;51.548;5.688;2022-08-21T09:55:19;5.45;;;1.67;;
73850;SDS011;62190;51.548;5.688;2022-08-21T09:57:54;5.97;;;1.52;;
73850;SDS011;62190;51.548;5.688;2022-08-21T10:03:12;7.83;;;1.60;;
73850;SDS011;62190;51.548;5.688;2022-08-21T10:05:49;7.53;;;1.60;;
73850;SDS011;62190;51.548;5.688;2022-08-21T10:08:18;7.87;;;1.42;;
73850;SDS011;62190;51.548;5.688;2022-08-21T10:10:46;6.03;;;1.12;;
73850;SDS011;62190;51.548;5.688;2022-08-21T10:13:42;5.30;;;1.35;;
73850;SDS011;62190;51.548;5.688;2022-08-21T10:19:08;5.65;;;1.25;;
73850;SDS011;62190;51.548;5.688;2022-08-21T10:24:31;3.70;;;1.17;;
73850;SDS011;62190;51.548;5.688;2022-08-21T10:27:11;5.60;;;1.20;;
73850;SDS011;62190;51.548;5.688;2022-08-21T10:32:22;4.58;;;1.35;;
73850;SDS011;62190;51.548;5.688;2022-08-21T10:34:56;7.97;;;1.42;;
73850;SDS011;62190;51.548;5.688;2022-08-21T10:37:46;4.62;;;1.30;;
73850;SDS011;62190;51.548;5.688;2022-08-21T10:45:57;7.25;;;1.32;;
73850;SDS011;62190;51.548;5.688;2022-08-21T10:48:29;3.52;;;1.17;;
73850;SDS011;62190;51.548;5.688;2022-08-21T10:51:06;3.95;;;1.57;;
73850;SDS011;62190;51.548;5.688;2022-08-21T10:53:57;5.62;;;1.10;;
73850;SDS011;62190;51.548;5.688;2022-08-21T10:56:29;7.78;;;1.70;;
73850;SDS011;62190;51.548;5.688;2022-08-21T10:58:59;4.47;;;1.25;;
73850;SDS011;62190;51.548;5.688;2022-08-21T11:07:06;5.25;;;1.20;;
73850;SDS011;62190;51.548;5.688;2022-08-21T11:09:32;6.28;;;1.20;;
73850;SDS011;62190;51.548;5.688;2022-08-21T11:12:09;4.80;;;1.30;;
73850;SDS011;62190;51.548;5.688;2022-08-21T11:14:56;4.92;;;1.20;;
73850;SDS011;62190;51.548;5.688;2022-08-21T11:17:32;5.10;;;1.05;;
73850;SDS011;62190;51.548;5.688;2022-08-21T11:20:17;6.28;;;1.37;;
73850;SDS011;62190;51.548;5.688;2022-08-21T11:22:48;6.25;;;1.30;;
73850;SDS011;62190;51.548;5.688;2022-08-21T11:25:27;9.53;;;1.90;;
73850;SDS011;62190;51.548;5.688;2022-08-21T11:28:52;5.12;;;1.30;;
73850;SDS011;62190;51.548;5.688;2022-08-21T11:39:06;7.22;;;1.65;;
73850;SDS011;62190;51.548;5.688;2022-08-21T11:41:59;6.47;;;1.27;;
73850;SDS011;62190;51.548;5.688;2022-08-21T11:44:28;5.58;;;1.65;;
73850;SDS011;62190;51.548;5.688;2022-08-21T11:47:02;5.50;;;1.65;;
73850;SDS011;62190;51.548;5.688;2022-08-21T11:58:00;4.20;;;1.45;;
73850;SDS011;62190;51.548;5.688;2022-08-21T12:00:30;6.33;;;1.37;;
73850;SDS011;62190;51.548;5.688;2022-08-21T12:03:21;4.10;;;1.70;;
73850;SDS011;62190;51.548;5.688;2022-08-21T12:05:44;6.37;;;1.72;;
73850;SDS011;62190;51.548;5.688;2022-08-21T12:08:13;4.62;;;1.57;;
73850;SDS011;62190;51.548;5.688;2022-08-21T12:10:47;5.40;;;1.55;;
73850;SDS011;62190;51.548;5.688;2022-08-21T12:13:23;4.93;;;1.33;;
73850;SDS011;62190;51.548;5.688;2022-08-21T12:15:52;3.67;;;1.40;;
73850;SDS011;62190;51.548;5.688;2022-08-21T12:18:28;5.62;;;1.50;;
73850;SDS011;62190;51.548;5.688;2022-08-21T12:21:00;5.30;;;2.05;;
73850;SDS011;62190;51.548;5.688;2022-08-21T12:29:26;3.85;;;1.20;;
73850;SDS011;62190;51.548;5.688;2022-08-21T12:31:57;3.70;;;1.30;;
73850;SDS011;62190;51.548;5.688;2022-08-21T12:34:37;4.80;;;1.15;;
73850;SDS011;62190;51.548;5.688;2022-08-21T12:37:49;5.57;;;1.80;;
73850;SDS011;62190;51.548;5.688;2022-08-21T12:39:36;4.58;;;1.60;;
73850;SDS011;62190;51.548;5.688;2022-08-21T12:44:51;5.70;;;1.62;;
73850;SDS011;62190;51.548;5.688;2022-08-21T12:47:33;5.45;;;1.82;;
73850;SDS011;62190;51.548;5.688;2022-08-21T12:50:31;6.33;;;1.87;;
73850;SDS011;62190;51.548;5.688;2022-08-21T12:52:59;4.00;;;1.13;;
73850;SDS011;62190;51.548;5.688;2022-08-21T12:55:28;4.83;;;1.62;;
73850;SDS011;62190;51.548;5.688;2022-08-21T12:57:58;9.05;;;1.87;;
73850;SDS011;62190;51.548;5.688;2022-08-21T13:00:26;6.67;;;1.60;;
73850;SDS011;62190;51.548;5.688;2022-08-21T13:02:55;5.75;;;1.75;;
73850;SDS011;62190;51.548;5.688;2022-08-21T13:05:31;4.42;;;1.15;;
73850;SDS011;62190;51.548;5.688;2022-08-21T13:08:03;6.97;;;1.70;;
73850;SDS011;62190;51.548;5.688;2022-08-21T13:10:33;5.42;;;1.32;;
73850;SDS011;62190;51.548;5.688;2022-08-21T13:13:03;6.80;;;1.55;;
73850;SDS011;62190;51.548;5.688;2022-08-21T13:15:32;4.17;;;1.00;;
73850;SDS011;62190;51.548;5.688;2022-08-21T13:18:03;5.10;;;1.27;;
73850;SDS011;62190;51.548;5.688;2022-08-21T13:20:34;5.78;;;1.17;;
73850;SDS011;62190;51.548;5.688;2022-08-21T13:23:16;5.50;;;1.27;;
73850;SDS011;62190;51.548;5.688;2022-08-21T13:25:46;4.70;;;1.32;;
73850;SDS011;62190;51.548;5.688;2022-08-21T13:28:13;6.75;;;1.50;;
73850;SDS011;62190;51.548;5.688;2022-08-21T13:30:48;7.97;;;1.30;;
73850;SDS011;62190;51.548;5.688;2022-08-21T13:33:24;8.63;;;1.65;;
73850;SDS011;62190;51.548;5.688;2022-08-21T13:38:34;7.90;;;2.10;;
73850;SDS011;62190;51.548;5.688;2022-08-21T13:40:59;4.83;;;1.30;;
73850;SDS011;62190;51.548;5.688;2022-08-21T13:43:32;7.47;;;1.72;;
73850;SDS011;62190;51.548;5.688;2022-08-21T13:46:01;5.75;;;1.40;;
73850;SDS011;62190;51.548;5.688;2022-08-21T13:48:31;6.00;;;1.52;;
73850;SDS011;62190;51.548;5.688;2022-08-21T13:50:59;7.67;;;1.98;;
73850;SDS011;62190;51.548;5.688;2022-08-21T13:53:33;4.47;;;1.52;;
73850;SDS011;62190;51.548;5.688;2022-08-21T13:55:58;5.67;;;1.52;;
73850;SDS011;62190;51.548;5.688;2022-08-21T13:58:26;3.33;;;1.57;;
73850;SDS011;62190;51.548;5.688;2022-08-21T14:00:56;6.97;;;2.05;;
73850;SDS011;62190;51.548;5.688;2022-08-21T14:03:37;5.80;;;1.60;;
73850;SDS011;62190;51.548;5.688;2022-08-21T14:06:01;6.60;;;1.75;;
73850;SDS011;62190;51.548;5.688;2022-08-21T14:08:34;5.92;;;1.52;;
73850;SDS011;62190;51.548;5.688;2022-08-21T14:11:09;4.40;;;1.50;;
73850;SDS011;62190;51.548;5.688;2022-08-21T14:13:38;5.42;;;1.47;;
73850;SDS011;62190;51.548;5.688;2022-08-21T14:16:16;7.55;;;1.50;;
73850;SDS011;62190;51.548;5.688;2022-08-21T14:18:51;4.37;;;1.32;;
73850;SDS011;62190;51.548;5.688;2022-08-21T14:21:31;7.22;;;1.55;;
73850;SDS011;62190;51.548;5.688;2022-08-21T14:24:04;4.80;;;1.42;;
73850;SDS011;62190;51.548;5.688;2022-08-21T14:26:44;5.37;;;1.57;;
73850;SDS011;62190;51.548;5.688;2022-08-21T14:29:13;5.85;;;1.22;;
73850;SDS011;62190;51.548;5.688;2022-08-21T14:31:42;6.62;;;1.50;;
73850;SDS011;62190;51.548;5.688;2022-08-21T14:34:12;6.12;;;1.40;;
73850;SDS011;62190;51.548;5.688;2022-08-21T14:36:40;5.20;;;1.45;;
73850;SDS011;62190;51.548;5.688;2022-08-21T14:39:08;5.65;;;1.10;;
73850;SDS011;62190;51.548;5.688;2022-08-21T14:41:35;7.55;;;1.55;;
73850;SDS011;62190;51.548;5.688;2022-08-21T14:44:03;4.65;;;1.10;;
73850;SDS011;62190;51.548;5.688;2022-08-21T14:46:31;5.05;;;1.50;;
73850;SDS011;62190;51.548;5.688;2022-08-21T14:49:01;4.62;;;1.27;;
73850;SDS011;62190;51.548;5.688;2022-08-21T14:51:30;4.90;;;1.15;;
73850;SDS011;62190;51.548;5.688;2022-08-21T14:53:57;4.45;;;1.17;;
73850;SDS011;62190;51.548;5.688;2022-08-21T14:56:25;5.47;;;1.25;;
73850;SDS011;62190;51.548;5.688;2022-08-21T14:58:52;5.22;;;1.42;;
73850;SDS011;62190;51.548;5.688;2022-08-21T15:01:21;4.97;;;1.45;;
73850;SDS011;62190;51.548;5.688;2022-08-21T15:03:49;4.33;;;1.52;;
73850;SDS011;62190;51.548;5.688;2022-08-21T15:06:17;7.17;;;1.52;;
73850;SDS011;62190;51.548;5.688;2022-08-21T15:08:46;4.47;;;1.52;;
73850;SDS011;62190;51.548;5.688;2022-08-21T15:11:16;5.00;;;1.30;;
73850;SDS011;62190;51.548;5.688;2022-08-21T15:13:44;6.45;;;1.65;;
73850;SDS011;62190;51.548;5.688;2022-08-21T15:16:12;4.87;;;1.65;;
73850;SDS011;62190;51.548;5.688;2022-08-21T15:18:40;6.08;;;1.12;;
73850;SDS011;62190;51.548;5.688;2022-08-21T15:21:07;8.43;;;1.37;;
73850;SDS011;62190;51.548;5.688;2022-08-21T15:23:35;6.80;;;1.50;;
73850;SDS011;62190;51.548;5.688;2022-08-21T15:26:03;4.72;;;1.35;;
73850;SDS011;62190;51.548;5.688;2022-08-21T15:28:30;4.95;;;1.17;;
73850;SDS011;62190;51.548;5.688;2022-08-21T15:31:00;4.22;;;1.30;;
73850;SDS011;62190;51.548;5.688;2022-08-21T15:33:27;7.95;;;1.82;;
73850;SDS011;62190;51.548;5.688;2022-08-21T15:35:55;5.87;;;1.42;;
73850;SDS011;62190;51.548;5.688;2022-08-21T15:38:23;4.65;;;1.40;;
73850;SDS011;62190;51.548;5.688;2022-08-21T15:40:50;5.08;;;1.75;;
73850;SDS011;62190;51.548;5.688;2022-08-21T15:43:28;8.98;;;1.50;;
73850;SDS011;62190;51.548;5.688;2022-08-21T15:45:58;6.08;;;1.62;;
73850;SDS011;62190;51.548;5.688;2022-08-21T15:48:26;4.60;;;1.07;;
73850;SDS011;62190;51.548;5.688;2022-08-21T15:50:54;4.87;;;1.45;;
73850;SDS011;62190;51.548;5.688;2022-08-21T15:53:21;5.78;;;1.50;;
73850;SDS011;62190;51.548;5.688;2022-08-21T15:55:48;4.87;;;1.30;;
73850;SDS011;62190;51.548;5.688;2022-08-21T15:58:16;5.62;;;1.50;;